sensor_id;sensor_type;location;lat;lon;timestamp;P1;durP1;ratioP1;P2;durP2;ratioP2
80481;SDS011;69797;43.864;21.410;2023-07-09T00:01:14;11.10;;;3.60;;
80481;SDS011;69797;43.864;21.410;2023-07-09T00:03:46;6.43;;;3.20;;
80481;SDS011;69797;43.864;21.410;2023-07-09T00:06:20;5.80;;;3.30;;
80481;SDS011;69797;43.864;21.410;2023-07-09T00:08:48;7.72;;;3.72;;
80481;SDS011;69797;43.864;21.410;2023-07-09T00:11:16;10.98;;;3.60;;
80481;SDS011;69797;43.864;21.410;2023-07-09T00:13:43;12.70;;;3.70;;
80481;SDS011;69797;43.864;21.410;2023-07-09T00:16:21;8.18;;;5.22;;
80481;SDS011;69797;43.864;21.410;2023-07-09T00:18:50;7.90;;;3.47;;
80481;SDS011;69797;43.864;21.410;2023-07-09T00:21:21;6.15;;;3.38;;
80481;SDS011;69797;43.864;21.410;2023-07-09T00:23:50;8.65;;;3.78;;
80481;SDS011;69797;43.864;21.410;2023-07-09T00:26:19;6.17;;;3.43;;
80481;SDS011;69797;43.864;21.410;2023-07-09T00:28:49;5.30;;;3.72;;
80481;SDS011;69797;43.864;21.410;2023-07-09T00:31:17;6.38;;;3.78;;
80481;SDS011;69797;43.864;21.410;2023-07-09T00:33:44;6.28;;;3.50;;
80481;SDS011;69797;43.864;21.410;2023-07-09T00:36:16;6.25;;;3.22;;
80481;SDS011;69797;43.864;21.410;2023-07-09T00:38:55;6.10;;;3.57;;
80481;SDS011;69797;43.864;21.410;2023-07-09T00:41:25;5.93;;;3.33;;
80481;SDS011;69797;43.864;21.410;2023-07-09T00:43:55;6.75;;;3.50;;
80481;SDS011;69797;43.864;21.410;2023-07-09T00:48:54;7.05;;;3.17;;
80481;SDS011;69797;43.864;21.410;2023-07-09T00:51:24;7.23;;;3.53;;
80481;SDS011;69797;43.864;21.410;2023-07-09T00:53:55;6.03;;;3.28;;
80481;SDS011;69797;43.864;21.410;2023-07-09T00:56:29;6.80;;;3.50;;
80481;SDS011;69797;43.864;21.410;2023-07-09T00:59:05;5.82;;;3.90;;
80481;SDS011;69797;43.864;21.410;2023-07-09T01:01:39;6.80;;;3.15;;
80481;SDS011;69797;43.864;21.410;2023-07-09T01:04:11;6.57;;;4.00;;
80481;SDS011;69797;43.864;21.410;2023-07-09T01:06:39;6.75;;;3.17;;
80481;SDS011;69797;43.864;21.410;2023-07-09T01:09:10;5.72;;;3.55;;
80481;SDS011;69797;43.864;21.410;2023-07-09T01:11:37;5.25;;;3.40;;
80481;SDS011;69797;43.864;21.410;2023-07-09T01:14:06;6.18;;;3.95;;
80481;SDS011;69797;43.864;21.410;2023-07-09T01:16:43;6.30;;;3.63;;
80481;SDS011;69797;43.864;21.410;2023-07-09T01:19:15;6.50;;;3.33;;
80481;SDS011;69797;43.864;21.410;2023-07-09T01:21:42;5.68;;;3.20;;
80481;SDS011;69797;43.864;21.410;2023-07-09T01:24:12;6.05;;;3.30;;
80481;SDS011;69797;43.864;21.410;2023-07-09T01:26:41;6.72;;;3.78;;
80481;SDS011;69797;43.864;21.410;2023-07-09T01:29:09;8.13;;;4.00;;
80481;SDS011;69797;43.864;21.410;2023-07-09T01:31:36;5.72;;;3.85;;
80481;SDS011;69797;43.864;21.410;2023-07-09T01:34:03;6.13;;;3.72;;
80481;SDS011;69797;43.864;21.410;2023-07-09T01:36:31;6.55;;;3.75;;
80481;SDS011;69797;43.864;21.410;2023-07-09T01:38:58;5.43;;;3.08;;
80481;SDS011;69797;43.864;21.410;2023-07-09T01:41:24;6.63;;;2.83;;
80481;SDS011;69797;43.864;21.410;2023-07-09T01:43:51;7.30;;;3.47;;
80481;SDS011;69797;43.864;21.410;2023-07-09T01:46:19;7.03;;;3.40;;
80481;SDS011;69797;43.864;21.410;2023-07-09T01:48:47;4.60;;;3.10;;
80481;SDS011;69797;43.864;21.410;2023-07-09T01:51:16;5.20;;;3.10;;
80481;SDS011;69797;43.864;21.410;2023-07-09T01:53:43;6.27;;;4.03;;
80481;SDS011;69797;43.864;21.410;2023-07-09T01:56:11;6.00;;;3.30;;
80481;SDS011;69797;43.864;21.410;2023-07-09T01:58:40;6.53;;;3.30;;
80481;SDS011;69797;43.864;21.410;2023-07-09T02:01:10;8.73;;;3.65;;
80481;SDS011;69797;43.864;21.410;2023-07-09T02:03:40;9.93;;;3.20;;
80481;SDS011;69797;43.864;21.410;2023-07-09T02:06:07;8.93;;;4.03;;
80481;SDS011;69797;43.864;21.410;2023-07-09T02:08:37;6.75;;;3.17;;
80481;SDS011;69797;43.864;21.410;2023-07-09T02:11:04;7.25;;;3.13;;
80481;SDS011;69797;43.864;21.410;2023-07-09T02:13:31;10.38;;;3.38;;
80481;SDS011;69797;43.864;21.410;2023-07-09T02:15:58;6.05;;;3.45;;
80481;SDS011;69797;43.864;21.410;2023-07-09T02:18:28;5.60;;;3.53;;
80481;SDS011;69797;43.864;21.410;2023-07-09T02:20:55;7.82;;;3.47;;
80481;SDS011;69797;43.864;21.410;2023-07-09T02:23:25;5.05;;;3.45;;
80481;SDS011;69797;43.864;21.410;2023-07-09T02:25:55;6.90;;;3.58;;
80481;SDS011;69797;43.864;21.410;2023-07-09T02:28:22;6.55;;;3.92;;
80481;SDS011;69797;43.864;21.410;2023-07-09T02:30:49;7.70;;;4.00;;
80481;SDS011;69797;43.864;21.410;2023-07-09T02:33:16;7.53;;;4.05;;
80481;SDS011;69797;43.864;21.410;2023-07-09T02:35:43;5.65;;;3.70;;
80481;SDS011;69797;43.864;21.410;2023-07-09T02:38:10;4.80;;;2.80;;
80481;SDS011;69797;43.864;21.410;2023-07-09T02:40:36;4.55;;;3.10;;
80481;SDS011;69797;43.864;21.410;2023-07-09T02:43:03;7.93;;;3.53;;
80481;SDS011;69797;43.864;21.410;2023-07-09T02:45:32;5.97;;;3.58;;
80481;SDS011;69797;43.864;21.410;2023-07-09T02:47:59;5.22;;;3.03;;
80481;SDS011;69797;43.864;21.410;2023-07-09T02:50:26;6.07;;;3.08;;
80481;SDS011;69797;43.864;21.410;2023-07-09T02:52:52;4.70;;;3.30;;
80481;SDS011;69797;43.864;21.410;2023-07-09T02:55:19;5.87;;;3.20;;
80481;SDS011;69797;43.864;21.410;2023-07-09T02:57:46;5.95;;;2.92;;
80481;SDS011;69797;43.864;21.410;2023-07-09T03:00:13;6.47;;;3.35;;
80481;SDS011;69797;43.864;21.410;2023-07-09T03:02:40;6.57;;;3.45;;
80481;SDS011;69797;43.864;21.410;2023-07-09T03:05:07;6.72;;;3.80;;
80481;SDS011;69797;43.864;21.410;2023-07-09T03:07:36;7.53;;;3.73;;
80481;SDS011;69797;43.864;21.410;2023-07-09T03:10:03;9.23;;;3.63;;
80481;SDS011;69797;43.864;21.410;2023-07-09T03:12:30;5.18;;;3.50;;
80481;SDS011;69797;43.864;21.410;2023-07-09T03:14:57;6.45;;;3.90;;
80481;SDS011;69797;43.864;21.410;2023-07-09T03:17:23;5.93;;;3.25;;
80481;SDS011;69797;43.864;21.410;2023-07-09T03:19:50;10.43;;;4.23;;
80481;SDS011;69797;43.864;21.410;2023-07-09T03:22:17;7.28;;;3.15;;
80481;SDS011;69797;43.864;21.410;2023-07-09T03:24:44;5.38;;;3.25;;
80481;SDS011;69797;43.864;21.410;2023-07-09T03:27:11;6.75;;;3.42;;
80481;SDS011;69797;43.864;21.410;2023-07-09T03:29:38;7.70;;;3.40;;
80481;SDS011;69797;43.864;21.410;2023-07-09T03:32:05;8.00;;;3.70;;
80481;SDS011;69797;43.864;21.410;2023-07-09T03:34:32;7.53;;;3.60;;
80481;SDS011;69797;43.864;21.410;2023-07-09T03:36:59;4.72;;;3.55;;
80481;SDS011;69797;43.864;21.410;2023-07-09T03:39:25;5.20;;;3.58;;
80481;SDS011;69797;43.864;21.410;2023-07-09T03:41:52;5.18;;;3.60;;
80481;SDS011;69797;43.864;21.410;2023-07-09T03:44:19;7.13;;;3.03;;
80481;SDS011;69797;43.864;21.410;2023-07-09T03:46:48;5.95;;;3.20;;
80481;SDS011;69797;43.864;21.410;2023-07-09T03:49:15;6.05;;;3.60;;
80481;SDS011;69797;43.864;21.410;2023-07-09T03:51:42;5.70;;;3.95;;
80481;SDS011;69797;43.864;21.410;2023-07-09T03:54:08;7.85;;;3.30;;
80481;SDS011;69797;43.864;21.410;2023-07-09T03:56:35;7.87;;;3.23;;
80481;SDS011;69797;43.864;21.410;2023-07-09T03:59:04;4.93;;;2.78;;
80481;SDS011;69797;43.864;21.410;2023-07-09T04:01:31;4.90;;;3.30;;
80481;SDS011;69797;43.864;21.410;2023-07-09T04:03:57;5.35;;;3.03;;
80481;SDS011;69797;43.864;21.410;2023-07-09T04:06:24;6.45;;;2.92;;
80481;SDS011;69797;43.864;21.410;2023-07-09T04:08:51;5.63;;;2.97;;
80481;SDS011;69797;43.864;21.410;2023-07-09T04:11:18;6.32;;;2.85;;
80481;SDS011;69797;43.864;21.410;2023-07-09T04:13:45;4.75;;;3.28;;
80481;SDS011;69797;43.864;21.410;2023-07-09T04:16:12;5.10;;;2.97;;
80481;SDS011;69797;43.864;21.410;2023-07-09T04:18:39;6.22;;;3.40;;
80481;SDS011;69797;43.864;21.410;2023-07-09T04:21:05;5.70;;;3.00;;
80481;SDS011;69797;43.864;21.410;2023-07-09T04:23:35;7.78;;;3.40;;
80481;SDS011;69797;43.864;21.410;2023-07-09T04:26:02;7.45;;;3.58;;
80481;SDS011;69797;43.864;21.410;2023-07-09T04:28:30;5.53;;;3.03;;
80481;SDS011;69797;43.864;21.410;2023-07-09T04:30:57;6.95;;;3.40;;
80481;SDS011;69797;43.864;21.410;2023-07-09T04:33:24;5.90;;;3.57;;
80481;SDS011;69797;43.864;21.410;2023-07-09T04:35:51;6.55;;;3.92;;
80481;SDS011;69797;43.864;21.410;2023-07-09T04:38:18;5.57;;;3.55;;
80481;SDS011;69797;43.864;21.410;2023-07-09T04:40:46;7.85;;;3.55;;
80481;SDS011;69797;43.864;21.410;2023-07-09T04:43:13;8.55;;;3.33;;
80481;SDS011;69797;43.864;21.410;2023-07-09T04:45:40;5.30;;;3.23;;
80481;SDS011;69797;43.864;21.410;2023-07-09T04:48:09;6.55;;;3.38;;
80481;SDS011;69797;43.864;21.410;2023-07-09T04:50:36;5.55;;;4.18;;
80481;SDS011;69797;43.864;21.410;2023-07-09T04:53:03;11.23;;;4.05;;
80481;SDS011;69797;43.864;21.410;2023-07-09T04:55:30;5.30;;;3.92;;
80481;SDS011;69797;43.864;21.410;2023-07-09T04:57:56;6.73;;;3.93;;
80481;SDS011;69797;43.864;21.410;2023-07-09T05:00:23;5.65;;;3.55;;
80481;SDS011;69797;43.864;21.410;2023-07-09T05:02:50;9.93;;;3.97;;
80481;SDS011;69797;43.864;21.410;2023-07-09T05:05:17;8.90;;;3.85;;
80481;SDS011;69797;43.864;21.410;2023-07-09T05:07:44;5.60;;;3.78;;
80481;SDS011;69797;43.864;21.410;2023-07-09T05:10:10;8.47;;;4.00;;
80481;SDS011;69797;43.864;21.410;2023-07-09T05:12:46;6.10;;;3.95;;
80481;SDS011;69797;43.864;21.410;2023-07-09T05:15:15;9.77;;;5.22;;
80481;SDS011;69797;43.864;21.410;2023-07-09T05:17:42;6.50;;;5.15;;
80481;SDS011;69797;43.864;21.410;2023-07-09T05:20:08;8.35;;;5.07;;
80481;SDS011;69797;43.864;21.410;2023-07-09T05:22:35;8.97;;;5.90;;
80481;SDS011;69797;43.864;21.410;2023-07-09T05:25:02;9.20;;;5.57;;
80481;SDS011;69797;43.864;21.410;2023-07-09T05:27:29;7.18;;;4.80;;
80481;SDS011;69797;43.864;21.410;2023-07-09T05:29:56;7.68;;;4.80;;
80481;SDS011;69797;43.864;21.410;2023-07-09T05:32:24;7.82;;;5.53;;
80481;SDS011;69797;43.864;21.410;2023-07-09T05:34:51;6.50;;;5.13;;
80481;SDS011;69797;43.864;21.410;2023-07-09T05:37:21;7.07;;;6.25;;
80481;SDS011;69797;43.864;21.410;2023-07-09T05:39:47;9.65;;;6.03;;
80481;SDS011;69797;43.864;21.410;2023-07-09T05:42:17;6.38;;;5.75;;
80481;SDS011;69797;43.864;21.410;2023-07-09T05:44:44;8.32;;;5.85;;
80481;SDS011;69797;43.864;21.410;2023-07-09T05:47:11;8.63;;;6.03;;
80481;SDS011;69797;43.864;21.410;2023-07-09T05:49:38;6.65;;;5.90;;
80481;SDS011;69797;43.864;21.410;2023-07-09T05:52:05;7.95;;;5.88;;
80481;SDS011;69797;43.864;21.410;2023-07-09T05:54:33;9.70;;;6.13;;
80481;SDS011;69797;43.864;21.410;2023-07-09T05:57:00;9.88;;;6.88;;
80481;SDS011;69797;43.864;21.410;2023-07-09T05:59:27;6.80;;;5.77;;
80481;SDS011;69797;43.864;21.410;2023-07-09T06:01:54;8.73;;;6.15;;
80481;SDS011;69797;43.864;21.410;2023-07-09T06:04:20;7.05;;;6.18;;
80481;SDS011;69797;43.864;21.410;2023-07-09T06:06:50;7.45;;;6.43;;
80481;SDS011;69797;43.864;21.410;2023-07-09T06:09:16;8.82;;;6.15;;
80481;SDS011;69797;43.864;21.410;2023-07-09T06:11:43;9.80;;;5.67;;
80481;SDS011;69797;43.864;21.410;2023-07-09T06:14:10;7.10;;;6.40;;
80481;SDS011;69797;43.864;21.410;2023-07-09T06:16:41;7.00;;;6.30;;
80481;SDS011;69797;43.864;21.410;2023-07-09T06:19:10;9.40;;;7.10;;
80481;SDS011;69797;43.864;21.410;2023-07-09T06:21:38;8.02;;;6.20;;
80481;SDS011;69797;43.864;21.410;2023-07-09T06:24:06;7.33;;;6.63;;
80481;SDS011;69797;43.864;21.410;2023-07-09T06:26:34;8.65;;;6.53;;
80481;SDS011;69797;43.864;21.410;2023-07-09T06:29:01;7.75;;;6.95;;
80481;SDS011;69797;43.864;21.410;2023-07-09T06:31:28;7.20;;;6.50;;
80481;SDS011;69797;43.864;21.410;2023-07-09T06:33:56;7.55;;;6.70;;
80481;SDS011;69797;43.864;21.410;2023-07-09T06:36:22;8.03;;;6.27;;
80481;SDS011;69797;43.864;21.410;2023-07-09T06:38:50;9.73;;;7.25;;
80481;SDS011;69797;43.864;21.410;2023-07-09T06:41:16;7.57;;;6.80;;
80481;SDS011;69797;43.864;21.410;2023-07-09T06:43:43;7.90;;;7.18;;
80481;SDS011;69797;43.864;21.410;2023-07-09T06:46:11;8.88;;;7.43;;
80481;SDS011;69797;43.864;21.410;2023-07-09T06:48:39;7.87;;;7.00;;
80481;SDS011;69797;43.864;21.410;2023-07-09T06:51:06;8.30;;;7.43;;
80481;SDS011;69797;43.864;21.410;2023-07-09T06:53:33;8.20;;;7.40;;
80481;SDS011;69797;43.864;21.410;2023-07-09T06:56:00;8.73;;;7.90;;
80481;SDS011;69797;43.864;21.410;2023-07-09T06:58:31;8.02;;;7.22;;
80481;SDS011;69797;43.864;21.410;2023-07-09T07:01:03;7.53;;;6.80;;
80481;SDS011;69797;43.864;21.410;2023-07-09T07:03:33;7.90;;;7.07;;
80481;SDS011;69797;43.864;21.410;2023-07-09T07:06:00;8.40;;;7.70;;
80481;SDS011;69797;43.864;21.410;2023-07-09T07:08:29;7.60;;;7.00;;
80481;SDS011;69797;43.864;21.410;2023-07-09T07:10:56;7.90;;;7.10;;
80481;SDS011;69797;43.864;21.410;2023-07-09T07:13:29;7.03;;;6.33;;
80481;SDS011;69797;43.864;21.410;2023-07-09T07:15:57;7.50;;;6.80;;
80481;SDS011;69797;43.864;21.410;2023-07-09T07:18:24;9.40;;;7.65;;
80481;SDS011;69797;43.864;21.410;2023-07-09T07:20:51;8.63;;;7.82;;
80481;SDS011;69797;43.864;21.410;2023-07-09T07:23:18;9.13;;;8.23;;
80481;SDS011;69797;43.864;21.410;2023-07-09T07:25:45;8.70;;;8.00;;
80481;SDS011;69797;43.864;21.410;2023-07-09T07:28:13;8.57;;;7.80;;
80481;SDS011;69797;43.864;21.410;2023-07-09T07:30:41;8.15;;;7.53;;
80481;SDS011;69797;43.864;21.410;2023-07-09T07:33:08;7.95;;;7.05;;
80481;SDS011;69797;43.864;21.410;2023-07-09T07:35:35;13.23;;;6.82;;
80481;SDS011;69797;43.864;21.410;2023-07-09T07:38:13;7.60;;;7.00;;
80481;SDS011;69797;43.864;21.410;2023-07-09T07:40:43;9.25;;;8.32;;
80481;SDS011;69797;43.864;21.410;2023-07-09T07:43:11;8.43;;;7.60;;
80481;SDS011;69797;43.864;21.410;2023-07-09T07:45:42;6.82;;;6.20;;
80481;SDS011;69797;43.864;21.410;2023-07-09T07:48:11;6.72;;;6.13;;
80481;SDS011;69797;43.864;21.410;2023-07-09T07:50:38;7.77;;;6.90;;
80481;SDS011;69797;43.864;21.410;2023-07-09T07:53:06;7.82;;;6.35;;
80481;SDS011;69797;43.864;21.410;2023-07-09T07:55:34;7.13;;;6.53;;
80481;SDS011;69797;43.864;21.410;2023-07-09T07:58:03;7.00;;;6.40;;
80481;SDS011;69797;43.864;21.410;2023-07-09T08:00:30;7.38;;;6.68;;
80481;SDS011;69797;43.864;21.410;2023-07-09T08:02:58;6.53;;;5.93;;
80481;SDS011;69797;43.864;21.410;2023-07-09T08:05:24;8.38;;;6.00;;
80481;SDS011;69797;43.864;21.410;2023-07-09T08:07:53;8.63;;;6.07;;
80481;SDS011;69797;43.864;21.410;2023-07-09T08:10:21;9.15;;;6.20;;
80481;SDS011;69797;43.864;21.410;2023-07-09T08:12:48;6.65;;;5.75;;
80481;SDS011;69797;43.864;21.410;2023-07-09T08:15:15;11.93;;;5.87;;
80481;SDS011;69797;43.864;21.410;2023-07-09T08:17:42;6.65;;;6.05;;
80481;SDS011;69797;43.864;21.410;2023-07-09T08:20:10;7.30;;;6.60;;
80481;SDS011;69797;43.864;21.410;2023-07-09T08:22:37;7.47;;;6.80;;
80481;SDS011;69797;43.864;21.410;2023-07-09T08:25:06;7.53;;;6.82;;
80481;SDS011;69797;43.864;21.410;2023-07-09T08:27:33;7.27;;;6.27;;
80481;SDS011;69797;43.864;21.410;2023-07-09T08:30:00;7.45;;;5.82;;
80481;SDS011;69797;43.864;21.410;2023-07-09T08:32:27;6.97;;;6.38;;
80481;SDS011;69797;43.864;21.410;2023-07-09T08:34:57;6.75;;;6.15;;
80481;SDS011;69797;43.864;21.410;2023-07-09T08:37:44;8.13;;;6.43;;
80481;SDS011;69797;43.864;21.410;2023-07-09T08:40:14;7.00;;;6.33;;
80481;SDS011;69797;43.864;21.410;2023-07-09T08:42:46;7.80;;;5.85;;
80481;SDS011;69797;43.864;21.410;2023-07-09T08:45:30;7.00;;;6.38;;
80481;SDS011;69797;43.864;21.410;2023-07-09T08:50:55;9.32;;;6.70;;
80481;SDS011;69797;43.864;21.410;2023-07-09T08:53:33;7.00;;;6.37;;
80481;SDS011;69797;43.864;21.410;2023-07-09T08:56:07;7.35;;;6.85;;
80481;SDS011;69797;43.864;21.410;2023-07-09T08:58:37;6.72;;;6.20;;
80481;SDS011;69797;43.864;21.410;2023-07-09T09:01:06;7.22;;;6.63;;
80481;SDS011;69797;43.864;21.410;2023-07-09T09:04:20;7.30;;;6.70;;
80481;SDS011;69797;43.864;21.410;2023-07-09T09:06:52;6.97;;;6.37;;
80481;SDS011;69797;43.864;21.410;2023-07-09T09:09:31;6.68;;;6.15;;
80481;SDS011;69797;43.864;21.410;2023-07-09T09:14:42;10.02;;;6.82;;
80481;SDS011;69797;43.864;21.410;2023-07-09T09:17:13;7.03;;;6.43;;
80481;SDS011;69797;43.864;21.410;2023-07-09T09:19:48;7.73;;;6.93;;
80481;SDS011;69797;43.864;21.410;2023-07-09T09:22:21;7.63;;;5.70;;
80481;SDS011;69797;43.864;21.410;2023-07-09T09:27:33;5.13;;;2.92;;
80481;SDS011;69797;43.864;21.410;2023-07-09T09:30:00;5.72;;;3.00;;
80481;SDS011;69797;43.864;21.410;2023-07-09T09:32:39;5.43;;;3.17;;
80481;SDS011;69797;43.864;21.410;2023-07-09T09:35:14;5.35;;;3.05;;
80481;SDS011;69797;43.864;21.410;2023-07-09T09:37:44;4.88;;;3.17;;
80481;SDS011;69797;43.864;21.410;2023-07-09T09:40:17;5.32;;;3.22;;
80481;SDS011;69797;43.864;21.410;2023-07-09T09:42:52;4.85;;;2.80;;
80481;SDS011;69797;43.864;21.410;2023-07-09T09:45:24;5.07;;;3.57;;
80481;SDS011;69797;43.864;21.410;2023-07-09T09:47:57;5.00;;;3.10;;
80481;SDS011;69797;43.864;21.410;2023-07-09T09:50:27;4.53;;;3.28;;
80481;SDS011;69797;43.864;21.410;2023-07-09T09:53:01;4.38;;;3.33;;
80481;SDS011;69797;43.864;21.410;2023-07-09T09:55:29;6.18;;;3.45;;
80481;SDS011;69797;43.864;21.410;2023-07-09T09:57:59;6.27;;;3.33;;
80481;SDS011;69797;43.864;21.410;2023-07-09T10:00:26;7.18;;;3.10;;
80481;SDS011;69797;43.864;21.410;2023-07-09T10:02:58;5.40;;;3.13;;
80481;SDS011;69797;43.864;21.410;2023-07-09T10:06:08;4.50;;;3.00;;
80481;SDS011;69797;43.864;21.410;2023-07-09T10:11:24;6.00;;;3.30;;
80481;SDS011;69797;43.864;21.410;2023-07-09T10:13:58;4.72;;;3.05;;
80481;SDS011;69797;43.864;21.410;2023-07-09T10:16:33;6.50;;;2.90;;
80481;SDS011;69797;43.864;21.410;2023-07-09T10:19:20;4.88;;;3.13;;
80481;SDS011;69797;43.864;21.410;2023-07-09T10:22:00;4.53;;;3.08;;
80481;SDS011;69797;43.864;21.410;2023-07-09T10:27:11;6.07;;;3.15;;
80481;SDS011;69797;43.864;21.410;2023-07-09T10:32:49;4.22;;;2.55;;
80481;SDS011;69797;43.864;21.410;2023-07-09T10:40:48;4.80;;;2.58;;
80481;SDS011;69797;43.864;21.410;2023-07-09T10:46:25;4.03;;;2.58;;
80481;SDS011;69797;43.864;21.410;2023-07-09T10:48:54;3.95;;;2.47;;
80481;SDS011;69797;43.864;21.410;2023-07-09T10:51:27;3.93;;;2.50;;
80481;SDS011;69797;43.864;21.410;2023-07-09T10:53:58;4.25;;;2.50;;
80481;SDS011;69797;43.864;21.410;2023-07-09T10:56:34;5.22;;;2.78;;
80481;SDS011;69797;43.864;21.410;2023-07-09T10:59:03;5.05;;;2.45;;
80481;SDS011;69797;43.864;21.410;2023-07-09T11:01:37;5.32;;;3.10;;
80481;SDS011;69797;43.864;21.410;2023-07-09T11:07:14;6.07;;;2.90;;
80481;SDS011;69797;43.864;21.410;2023-07-09T11:09:46;7.20;;;2.67;;
80481;SDS011;69797;43.864;21.410;2023-07-09T11:12:17;3.92;;;2.42;;
80481;SDS011;69797;43.864;21.410;2023-07-09T11:17:40;5.30;;;2.60;;
80481;SDS011;69797;43.864;21.410;2023-07-09T11:20:18;3.53;;;2.05;;
80481;SDS011;69797;43.864;21.410;2023-07-09T11:22:59;3.90;;;2.58;;
80481;SDS011;69797;43.864;21.410;2023-07-09T11:25:31;3.40;;;2.25;;
80481;SDS011;69797;43.864;21.410;2023-07-09T11:28:09;5.25;;;2.70;;
80481;SDS011;69797;43.864;21.410;2023-07-09T11:30:46;6.03;;;2.93;;
80481;SDS011;69797;43.864;21.410;2023-07-09T11:33:27;4.75;;;2.53;;
80481;SDS011;69797;43.864;21.410;2023-07-09T11:38:41;6.20;;;2.38;;
80481;SDS011;69797;43.864;21.410;2023-07-09T11:49:39;4.18;;;2.53;;
80481;SDS011;69797;43.864;21.410;2023-07-09T11:52:18;5.22;;;2.60;;
80481;SDS011;69797;43.864;21.410;2023-07-09T11:54:54;7.95;;;3.42;;
80481;SDS011;69797;43.864;21.410;2023-07-09T11:57:24;5.17;;;3.10;;
80481;SDS011;69797;43.864;21.410;2023-07-09T11:59:58;8.50;;;3.65;;
80481;SDS011;69797;43.864;21.410;2023-07-09T12:02:26;5.82;;;3.40;;
80481;SDS011;69797;43.864;21.410;2023-07-09T12:04:59;5.07;;;2.65;;
80481;SDS011;69797;43.864;21.410;2023-07-09T12:07:29;4.72;;;2.83;;
80481;SDS011;69797;43.864;21.410;2023-07-09T12:09:59;3.77;;;2.60;;
80481;SDS011;69797;43.864;21.410;2023-07-09T12:12:30;3.58;;;2.53;;
80481;SDS011;69797;43.864;21.410;2023-07-09T12:14:56;4.93;;;2.22;;
80481;SDS011;69797;43.864;21.410;2023-07-09T12:17:27;6.40;;;3.63;;
80481;SDS011;69797;43.864;21.410;2023-07-09T12:19:56;3.90;;;2.55;;
80481;SDS011;69797;43.864;21.410;2023-07-09T12:22:23;4.97;;;2.97;;
80481;SDS011;69797;43.864;21.410;2023-07-09T12:24:50;4.43;;;2.50;;
80481;SDS011;69797;43.864;21.410;2023-07-09T12:27:22;5.35;;;3.05;;
80481;SDS011;69797;43.864;21.410;2023-07-09T12:29:53;4.70;;;2.80;;
80481;SDS011;69797;43.864;21.410;2023-07-09T12:32:22;5.93;;;3.00;;
80481;SDS011;69797;43.864;21.410;2023-07-09T12:34:54;4.77;;;2.87;;
80481;SDS011;69797;43.864;21.410;2023-07-09T12:37:31;6.55;;;2.60;;
80481;SDS011;69797;43.864;21.410;2023-07-09T12:40:00;5.75;;;2.40;;
80481;SDS011;69797;43.864;21.410;2023-07-09T12:42:32;4.95;;;2.90;;
80481;SDS011;69797;43.864;21.410;2023-07-09T12:45:02;5.32;;;2.55;;
80481;SDS011;69797;43.864;21.410;2023-07-09T12:47:29;5.60;;;2.97;;
80481;SDS011;69797;43.864;21.410;2023-07-09T12:50:08;5.22;;;2.75;;
80481;SDS011;69797;43.864;21.410;2023-07-09T12:53:11;5.82;;;2.92;;
80481;SDS011;69797;43.864;21.410;2023-07-09T12:55:41;5.53;;;2.92;;
80481;SDS011;69797;43.864;21.410;2023-07-09T12:58:18;6.15;;;2.88;;
80481;SDS011;69797;43.864;21.410;2023-07-09T13:00:51;4.37;;;2.40;;
80481;SDS011;69797;43.864;21.410;2023-07-09T13:03:21;3.92;;;2.40;;
80481;SDS011;69797;43.864;21.410;2023-07-09T13:06:36;4.05;;;2.78;;
80481;SDS011;69797;43.864;21.410;2023-07-09T13:09:00;5.30;;;2.83;;
80481;SDS011;69797;43.864;21.410;2023-07-09T13:11:36;4.18;;;2.63;;
80481;SDS011;69797;43.864;21.410;2023-07-09T13:14:05;4.77;;;2.70;;
80481;SDS011;69797;43.864;21.410;2023-07-09T13:16:40;4.07;;;2.72;;
80481;SDS011;69797;43.864;21.410;2023-07-09T13:19:11;6.00;;;2.50;;
80481;SDS011;69797;43.864;21.410;2023-07-09T13:21:38;3.88;;;2.17;;
80481;SDS011;69797;43.864;21.410;2023-07-09T13:24:13;3.60;;;2.47;;
80481;SDS011;69797;43.864;21.410;2023-07-09T13:26:42;4.40;;;2.73;;
80481;SDS011;69797;43.864;21.410;2023-07-09T13:29:15;4.35;;;2.33;;
80481;SDS011;69797;43.864;21.410;2023-07-09T13:31:44;3.90;;;2.70;;
80481;SDS011;69797;43.864;21.410;2023-07-09T13:34:21;5.70;;;2.60;;
80481;SDS011;69797;43.864;21.410;2023-07-09T13:36:59;4.68;;;3.08;;
80481;SDS011;69797;43.864;21.410;2023-07-09T13:39:26;4.87;;;2.87;;
80481;SDS011;69797;43.864;21.410;2023-07-09T13:41:54;6.38;;;3.20;;
80481;SDS011;69797;43.864;21.410;2023-07-09T13:44:24;5.88;;;3.30;;
80481;SDS011;69797;43.864;21.410;2023-07-09T13:46:57;5.35;;;2.40;;
80481;SDS011;69797;43.864;21.410;2023-07-09T13:49:25;4.97;;;3.03;;
80481;SDS011;69797;43.864;21.410;2023-07-09T13:51:56;7.03;;;3.50;;
80481;SDS011;69797;43.864;21.410;2023-07-09T13:54:30;7.45;;;2.95;;
80481;SDS011;69797;43.864;21.410;2023-07-09T13:57:03;6.57;;;2.55;;
80481;SDS011;69797;43.864;21.410;2023-07-09T13:59:31;5.50;;;3.05;;
80481;SDS011;69797;43.864;21.410;2023-07-09T14:01:59;5.05;;;3.05;;
80481;SDS011;69797;43.864;21.410;2023-07-09T14:04:27;4.40;;;2.70;;
80481;SDS011;69797;43.864;21.410;2023-07-09T14:06:57;4.10;;;2.30;;
80481;SDS011;69797;43.864;21.410;2023-07-09T14:09:24;6.85;;;3.00;;
80481;SDS011;69797;43.864;21.410;2023-07-09T14:11:51;7.55;;;2.80;;
80481;SDS011;69797;43.864;21.410;2023-07-09T14:14:23;8.10;;;3.22;;
80481;SDS011;69797;43.864;21.410;2023-07-09T14:16:54;4.60;;;3.20;;
80481;SDS011;69797;43.864;21.410;2023-07-09T14:19:22;8.25;;;4.32;;
80481;SDS011;69797;43.864;21.410;2023-07-09T14:21:50;5.85;;;2.80;;
80481;SDS011;69797;43.864;21.410;2023-07-09T14:26:50;7.75;;;2.75;;
80481;SDS011;69797;43.864;21.410;2023-07-09T14:29:17;5.13;;;2.57;;
80481;SDS011;69797;43.864;21.410;2023-07-09T14:31:45;7.97;;;2.97;;
80481;SDS011;69797;43.864;21.410;2023-07-09T14:34:17;4.65;;;2.72;;
80481;SDS011;69797;43.864;21.410;2023-07-09T14:36:50;5.13;;;2.55;;
80481;SDS011;69797;43.864;21.410;2023-07-09T14:39:19;7.60;;;2.72;;
80481;SDS011;69797;43.864;21.410;2023-07-09T14:41:47;5.40;;;2.80;;
80481;SDS011;69797;43.864;21.410;2023-07-09T14:44:27;7.72;;;2.25;;
80481;SDS011;69797;43.864;21.410;2023-07-09T14:46:57;4.20;;;2.63;;
80481;SDS011;69797;43.864;21.410;2023-07-09T14:49:26;5.65;;;2.85;;
80481;SDS011;69797;43.864;21.410;2023-07-09T14:51:53;4.22;;;2.70;;
80481;SDS011;69797;43.864;21.410;2023-07-09T14:56:50;4.82;;;3.03;;
80481;SDS011;69797;43.864;21.410;2023-07-09T14:59:18;4.93;;;2.67;;
80481;SDS011;69797;43.864;21.410;2023-07-09T15:01:46;4.45;;;3.00;;
80481;SDS011;69797;43.864;21.410;2023-07-09T15:06:53;3.90;;;2.33;;
80481;SDS011;69797;43.864;21.410;2023-07-09T15:09:22;5.93;;;2.45;;
80481;SDS011;69797;43.864;21.410;2023-07-09T15:11:51;6.15;;;2.97;;
80481;SDS011;69797;43.864;21.410;2023-07-09T15:14:21;4.95;;;2.58;;
80481;SDS011;69797;43.864;21.410;2023-07-09T15:16:48;4.05;;;2.65;;
80481;SDS011;69797;43.864;21.410;2023-07-09T15:19:19;4.47;;;2.80;;
80481;SDS011;69797;43.864;21.410;2023-07-09T15:21:48;4.13;;;2.63;;
80481;SDS011;69797;43.864;21.410;2023-07-09T15:24:19;3.70;;;2.63;;
80481;SDS011;69797;43.864;21.410;2023-07-09T15:26:50;5.38;;;2.85;;
80481;SDS011;69797;43.864;21.410;2023-07-09T15:29:22;5.70;;;2.80;;
80481;SDS011;69797;43.864;21.410;2023-07-09T15:31:49;4.90;;;2.73;;
80481;SDS011;69797;43.864;21.410;2023-07-09T15:34:17;4.63;;;2.45;;
80481;SDS011;69797;43.864;21.410;2023-07-09T15:36:47;5.60;;;2.72;;
80481;SDS011;69797;43.864;21.410;2023-07-09T15:39:17;5.65;;;2.55;;
80481;SDS011;69797;43.864;21.410;2023-07-09T15:41:47;5.53;;;2.70;;